createdAt,value
2018-12-15T00:01:59.658Z,17.87
2018-12-15T00:04:28.336Z,18.77
2018-12-15T00:06:57.043Z,19.10
2018-12-15T00:09:25.880Z,18.10
2018-12-15T00:11:54.430Z,19.27
2018-12-15T00:14:23.151Z,19.53
2018-12-15T00:16:51.782Z,19.33
2018-12-15T00:19:20.325Z,18.30
2018-12-15T00:21:48.857Z,18.83
2018-12-15T00:24:17.505Z,19.10
2018-12-15T00:26:46.044Z,18.70
2018-12-15T00:29:14.763Z,18.53
2018-12-15T00:31:43.398Z,17.80
2018-12-15T00:34:12.033Z,17.57
2018-12-15T00:36:40.579Z,17.40
2018-12-15T00:39:09.304Z,16.60
2018-12-15T00:41:38.335Z,18.07
2018-12-15T00:44:07.166Z,17.67
2018-12-15T00:46:35.801Z,17.67
2018-12-15T00:49:04.632Z,17.53
2018-12-15T00:51:33.368Z,18.40
2018-12-15T00:54:02.099Z,17.57
2018-12-15T00:56:30.698Z,17.63
2018-12-15T00:58:59.370Z,18.70
2018-12-15T01:01:28.202Z,17.73
2018-12-15T01:03:57.019Z,16.17
2018-12-15T01:06:25.670Z,17.60
2018-12-15T01:08:54.501Z,17.00
2018-12-15T01:11:23.285Z,18.60
2018-12-15T01:13:51.972Z,17.23
2018-12-15T01:16:20.605Z,18.73
2018-12-15T01:18:49.241Z,18.13
2018-12-15T01:21:17.846Z,17.43
2018-12-15T01:23:46.515Z,17.07
2018-12-15T01:26:15.076Z,17.40
2018-12-15T01:28:43.783Z,18.27
2018-12-15T01:31:12.615Z,17.80
2018-12-15T01:33:41.447Z,17.13
2018-12-15T01:36:10.082Z,19.57
2018-12-15T01:38:38.718Z,22.57
2018-12-15T01:41:07.549Z,20.67
2018-12-15T01:43:36.307Z,27.97
2018-12-15T01:46:05.213Z,23.27
2018-12-15T01:48:34.046Z,20.50
2018-12-15T01:51:02.881Z,18.13
2018-12-15T01:53:31.710Z,17.60
2018-12-15T01:56:00.255Z,17.63
2018-12-15T01:58:28.980Z,18.07
2018-12-15T02:00:57.812Z,18.57
2018-12-15T02:03:26.376Z,19.27
2018-12-15T02:05:55.489Z,25.30
2018-12-15T02:08:24.179Z,20.70
2018-12-15T02:10:52.920Z,19.67
2018-12-15T02:13:21.582Z,18.53
2018-12-15T02:15:49.966Z,18.97
2018-12-15T02:18:18.539Z,18.37
2018-12-15T02:20:47.294Z,19.17
2018-12-15T02:23:16.121Z,18.90
2018-12-15T02:25:44.757Z,17.80
2018-12-15T02:28:13.588Z,19.27
2018-12-15T02:30:42.421Z,19.13
2018-12-15T02:33:11.057Z,19.70
2018-12-15T02:35:39.693Z,18.67
2018-12-15T02:38:08.458Z,19.20
2018-12-15T02:40:37.163Z,20.30
2018-12-15T02:43:05.763Z,19.73
2018-12-15T02:45:34.296Z,20.37
2018-12-15T02:48:02.940Z,18.43
2018-12-15T02:50:31.682Z,21.13
2018-12-15T02:53:00.731Z,24.13
2018-12-15T02:55:29.366Z,24.57
2018-12-15T02:57:58.200Z,28.57
2018-12-15T03:00:26.833Z,26.17
2018-12-15T03:02:55.379Z,26.97
2018-12-15T03:05:24.021Z,25.80
2018-12-15T03:07:52.659Z,20.77
2018-12-15T03:10:21.348Z,20.27
2018-12-15T03:12:50.014Z,22.63
2018-12-15T03:15:18.554Z,20.87
2018-12-15T03:17:49.008Z,22.03
2018-12-15T03:20:17.809Z,22.07
2018-12-15T03:22:46.386Z,21.37
2018-12-15T03:25:15.313Z,22.23
2018-12-15T03:27:44.019Z,19.50
2018-12-15T03:30:12.750Z,21.70
2018-12-15T03:32:41.458Z,20.93
2018-12-15T03:35:09.999Z,22.20
2018-12-15T03:37:38.529Z,21.37
2018-12-15T03:40:07.358Z,20.80
2018-12-15T03:42:36.192Z,19.37
2018-12-15T03:45:05.437Z,19.43
2018-12-15T03:47:34.052Z,20.00
2018-12-15T03:50:02.887Z,20.33
2018-12-15T03:52:31.519Z,20.37
2018-12-15T03:55:00.065Z,21.30
2018-12-15T03:57:28.790Z,20.30
2018-12-15T03:59:57.429Z,20.53
2018-12-15T04:02:25.930Z,21.43
2018-12-15T04:04:54.699Z,21.20
2018-12-15T04:07:23.333Z,25.97
2018-12-15T04:09:52.132Z,22.23
2018-12-15T04:12:20.666Z,19.33
2018-12-15T04:14:49.311Z,20.33
2018-12-15T04:17:18.051Z,20.60
2018-12-15T04:19:46.595Z,20.37
2018-12-15T04:22:20.121Z,23.57
2018-12-15T04:24:48.825Z,20.50
2018-12-15T04:27:17.450Z,20.03
2018-12-15T04:29:46.124Z,19.57
2018-12-15T04:32:14.800Z,18.97
2018-12-15T04:34:43.435Z,17.90
2018-12-15T04:37:12.043Z,19.03
2018-12-15T04:39:40.706Z,17.40
2018-12-15T04:42:09.323Z,16.77
2018-12-15T04:44:38.173Z,17.43
2018-12-15T04:47:07.076Z,18.80
2018-12-15T04:49:35.841Z,17.83
2018-12-15T04:52:05.068Z,18.23
2018-12-15T04:54:33.698Z,17.80
2018-12-15T04:57:02.339Z,17.13
2018-12-15T04:59:30.957Z,17.87
2018-12-15T05:01:59.567Z,19.97
2018-12-15T05:04:28.240Z,17.47
2018-12-15T05:06:56.939Z,19.30
2018-12-15T05:09:25.587Z,17.77
2018-12-15T05:11:54.302Z,18.53
2018-12-15T05:14:22.978Z,16.83
2018-12-15T05:16:51.618Z,18.13
2018-12-15T05:19:20.176Z,17.37
2018-12-15T05:21:48.860Z,17.40
2018-12-15T05:24:17.521Z,17.90
2018-12-15T05:26:45.962Z,17.53
2018-12-15T05:29:14.504Z,18.30
2018-12-15T05:31:43.232Z,18.27
2018-12-15T05:34:11.834Z,18.73
2018-12-15T05:36:40.475Z,16.53
2018-12-15T05:39:09.140Z,18.83
2018-12-15T05:41:37.972Z,19.40
2018-12-15T05:44:06.802Z,20.87
2018-12-15T05:46:35.305Z,20.60
2018-12-15T05:49:04.072Z,19.07
2018-12-15T05:51:32.711Z,18.07
2018-12-15T05:54:01.260Z,17.23
2018-12-15T05:56:29.946Z,17.73
2018-12-15T05:58:58.614Z,17.50
2018-12-15T06:01:27.250Z,17.47
2018-12-15T06:03:55.885Z,17.17
2018-12-15T06:06:25.307Z,18.00
2018-12-15T06:08:54.144Z,17.90
2018-12-15T06:11:22.652Z,18.00
2018-12-15T06:13:51.297Z,18.53
2018-12-15T06:16:20.016Z,19.70
2018-12-15T06:18:48.878Z,18.83
2018-12-15T06:21:18.104Z,19.67
2018-12-15T06:23:46.742Z,18.00
2018-12-15T06:26:15.375Z,18.10
2018-12-15T06:28:44.010Z,17.77
2018-12-15T06:31:12.601Z,17.77
2018-12-15T06:33:41.281Z,17.87
2018-12-15T06:36:09.917Z,17.00
2018-12-15T06:38:38.623Z,18.80
2018-12-15T06:41:07.384Z,18.40
2018-12-15T06:43:36.526Z,19.20
2018-12-15T06:46:05.638Z,19.20
2018-12-15T06:48:38.172Z,18.57
2018-12-15T06:51:04.877Z,18.53
2018-12-15T06:53:33.639Z,17.23
2018-12-15T06:56:02.223Z,17.30
2018-12-15T06:58:30.978Z,17.93
2018-12-15T07:00:59.532Z,18.83
2018-12-15T07:03:28.249Z,21.53
2018-12-15T07:05:57.150Z,21.17
2018-12-15T07:08:25.823Z,19.40
2018-12-15T07:10:54.548Z,19.73
2018-12-15T07:13:23.385Z,20.60
2018-12-15T07:15:52.024Z,22.10
2018-12-15T07:18:20.632Z,18.90
2018-12-15T07:20:49.154Z,21.83
2018-12-15T07:23:17.917Z,23.50
2018-12-15T07:25:47.054Z,23.97
2018-12-15T07:28:15.566Z,22.40
2018-12-15T07:30:44.532Z,28.97
2018-12-15T07:33:13.257Z,25.47
2018-12-15T07:35:41.886Z,22.63
2018-12-15T07:38:10.480Z,27.97
2018-12-15T07:40:39.158Z,25.67
2018-12-15T07:43:07.989Z,25.70
2018-12-15T07:45:36.945Z,25.40
2018-12-15T07:48:05.655Z,25.27
2018-12-15T07:50:34.293Z,31.17
2018-12-15T07:53:02.925Z,29.30
2018-12-15T07:55:31.527Z,26.87
2018-12-15T07:58:00.371Z,28.93
2018-12-15T08:00:29.029Z,38.10
2018-12-15T08:02:57.664Z,27.90
2018-12-15T08:05:26.496Z,26.60
2018-12-15T08:07:55.055Z,23.17
2018-12-15T08:10:23.963Z,28.73
2018-12-15T08:12:57.513Z,32.47
2018-12-15T08:15:26.923Z,35.50
2018-12-15T08:17:55.740Z,29.80
2018-12-15T08:20:24.435Z,60.93
2018-12-15T08:22:53.170Z,72.77
2018-12-15T08:25:21.888Z,48.83
2018-12-15T08:27:50.524Z,28.80
2018-12-15T08:30:19.212Z,26.77
2018-12-15T08:32:47.779Z,27.07
2018-12-15T08:35:16.936Z,27.00
2018-12-15T08:37:45.834Z,25.47
2018-12-15T08:40:14.595Z,24.50
2018-12-15T08:42:43.174Z,24.30
2018-12-15T08:45:11.828Z,23.03
2018-12-15T08:47:40.546Z,24.20
2018-12-15T08:50:09.406Z,25.80
2018-12-15T08:52:38.041Z,23.43
2018-12-15T08:55:06.949Z,29.97
2018-12-15T08:57:35.710Z,21.77
2018-12-15T09:00:05.330Z,24.43
2018-12-15T09:02:33.958Z,24.77
2018-12-15T09:05:02.516Z,29.27
2018-12-15T09:07:31.230Z,26.20
2018-12-15T09:09:59.830Z,32.83
2018-12-15T09:12:28.699Z,21.57
2018-12-15T09:14:57.333Z,20.27
2018-12-15T09:17:25.968Z,18.40
2018-12-15T09:19:54.603Z,20.57
2018-12-15T09:22:23.631Z,18.20
2018-12-15T09:24:52.268Z,19.87
2018-12-15T09:27:20.902Z,20.33
2018-12-15T09:29:49.514Z,19.77
2018-12-15T09:32:18.178Z,17.33
2018-12-15T09:34:46.724Z,19.17
2018-12-15T09:37:15.445Z,20.00
2018-12-15T09:39:43.937Z,20.03
2018-12-15T09:42:12.676Z,18.97
2018-12-15T09:44:41.224Z,19.23
2018-12-15T09:47:09.959Z,19.17
2018-12-15T09:49:38.819Z,19.27
2018-12-15T09:52:07.453Z,17.43
2018-12-15T09:54:36.285Z,16.20
2018-12-15T09:57:05.118Z,19.17
2018-12-15T09:59:33.947Z,18.67
2018-12-15T10:02:02.787Z,15.67
2018-12-15T10:04:31.330Z,17.83
2018-12-15T10:07:00.025Z,19.73
2018-12-15T10:09:28.687Z,14.93
2018-12-15T10:11:57.327Z,13.83
2018-12-15T10:14:25.959Z,15.43
2018-12-15T10:16:54.594Z,15.83
2018-12-15T10:19:24.395Z,16.00
2018-12-15T10:21:53.503Z,17.07
2018-12-15T10:24:22.247Z,14.40
2018-12-15T10:26:50.907Z,15.37
2018-12-15T10:29:25.151Z,14.07
2018-12-15T10:35:01.383Z,18.60
2018-12-15T10:37:30.084Z,16.27
2018-12-15T10:39:58.713Z,14.03
2018-12-15T10:42:27.277Z,11.90
2018-12-15T10:44:55.850Z,13.93
2018-12-15T10:47:24.531Z,11.80
2018-12-15T10:49:53.247Z,13.70
2018-12-15T10:52:21.890Z,13.50
2018-12-15T10:54:50.455Z,18.73
2018-12-15T10:57:19.161Z,15.00
2018-12-15T10:59:47.997Z,15.77
2018-12-15T11:02:16.829Z,16.03
2018-12-15T11:04:45.460Z,14.97
2018-12-15T11:07:14.062Z,15.10
2018-12-15T11:09:42.731Z,15.10
2018-12-15T11:12:11.368Z,14.50
2018-12-15T11:14:40.199Z,14.83
2018-12-15T11:17:09.038Z,18.97
2018-12-15T11:19:37.598Z,24.20
2018-12-15T11:22:06.276Z,17.17
2018-12-15T11:24:35.133Z,16.20
2018-12-15T11:27:03.966Z,15.97
2018-12-15T11:29:32.794Z,15.73
2018-12-15T11:32:01.439Z,16.00
2018-12-15T11:34:30.026Z,15.33
2018-12-15T11:36:58.704Z,16.33
2018-12-15T11:39:27.212Z,16.53
2018-12-15T11:41:55.974Z,16.40
2018-12-15T11:44:24.520Z,17.63
2018-12-15T11:46:53.212Z,16.13
2018-12-15T11:49:21.751Z,15.20
2018-12-15T11:51:50.396Z,16.13
2018-12-15T11:54:19.350Z,15.33
2018-12-15T11:56:47.906Z,15.57
2018-12-15T11:59:16.620Z,17.90
2018-12-15T12:01:45.454Z,15.40
2018-12-15T12:04:13.956Z,15.73
2018-12-15T12:06:42.701Z,19.43
2018-12-15T12:09:11.359Z,14.33
2018-12-15T12:11:39.996Z,15.50
2018-12-15T12:14:09.089Z,17.17
2018-12-15T12:16:38.051Z,17.60
2018-12-15T12:19:06.686Z,15.17
2018-12-15T12:21:35.229Z,14.73
2018-12-15T12:24:03.957Z,15.20
2018-12-15T12:26:32.592Z,14.30
2018-12-15T12:29:01.427Z,14.67
2018-12-15T12:31:30.009Z,13.43
2018-12-15T12:33:58.698Z,13.07
2018-12-15T12:36:27.331Z,12.67
2018-12-15T12:38:55.970Z,12.60
2018-12-15T12:41:24.601Z,14.20
2018-12-15T12:43:53.162Z,13.13
2018-12-15T12:46:21.702Z,12.13
2018-12-15T12:48:50.471Z,13.73
2018-12-15T12:51:19.143Z,12.97
2018-12-15T12:53:48.056Z,10.93
2018-12-15T12:56:16.720Z,10.23
2018-12-15T12:58:45.445Z,10.07
2018-12-15T13:01:14.006Z,9.87
2018-12-15T13:03:42.718Z,10.50
2018-12-15T13:06:11.348Z,10.20
2018-12-15T13:08:40.180Z,9.30
2018-12-15T13:11:08.751Z,8.73
2018-12-15T13:13:37.417Z,9.23
2018-12-15T13:16:06.086Z,8.80
2018-12-15T13:18:34.830Z,9.40
2018-12-15T13:21:03.468Z,9.90
2018-12-15T13:23:32.312Z,9.90
2018-12-15T13:26:00.979Z,9.70
2018-12-15T13:28:29.657Z,10.00
2018-12-15T13:30:58.293Z,9.13
2018-12-15T13:33:33.860Z,10.20
2018-12-15T13:36:02.771Z,11.47
2018-12-15T13:38:31.473Z,11.57
2018-12-15T13:41:00.033Z,11.43
2018-12-15T13:43:30.300Z,10.93
2018-12-15T13:45:59.150Z,10.57
2018-12-15T13:48:27.784Z,10.93
2018-12-15T13:50:56.420Z,10.90
2018-12-15T13:53:25.143Z,15.57
2018-12-15T13:55:53.860Z,12.07
2018-12-15T13:58:22.706Z,12.13
2018-12-15T14:00:51.355Z,9.67
2018-12-15T14:03:19.989Z,9.50
2018-12-15T14:05:48.557Z,14.67
2018-12-15T14:08:17.222Z,15.40
2018-12-15T14:10:45.897Z,23.27
2018-12-15T14:13:14.657Z,23.13
2018-12-15T14:15:43.363Z,10.97
2018-12-15T14:18:11.966Z,9.90
2018-12-15T14:20:40.559Z,9.87
2018-12-15T14:23:09.465Z,11.40
2018-12-15T14:25:38.297Z,14.90
2018-12-15T14:28:07.130Z,14.03
2018-12-15T14:30:35.628Z,14.20
2018-12-15T14:33:04.328Z,13.70
2018-12-15T14:35:33.035Z,9.83
2018-12-15T14:38:01.674Z,8.17
2018-12-15T14:40:30.296Z,10.57
2018-12-15T14:42:58.864Z,9.27
2018-12-15T14:45:27.580Z,10.27
2018-12-15T14:47:56.213Z,9.33
2018-12-15T14:50:24.848Z,10.67
2018-12-15T14:52:53.414Z,8.73
2018-12-15T14:55:22.075Z,8.90
2018-12-15T14:57:50.757Z,9.20
2018-12-15T15:00:19.650Z,7.70
2018-12-15T15:02:48.417Z,8.47
2018-12-15T15:05:17.053Z,8.07
2018-12-15T15:07:46.170Z,8.43
2018-12-15T15:10:14.629Z,8.63
2018-12-15T15:12:43.352Z,8.53
2018-12-15T15:15:11.919Z,8.77
2018-12-15T15:17:40.427Z,9.03
2018-12-15T15:20:10.150Z,8.77
2018-12-15T15:22:38.681Z,8.57
2018-12-15T15:25:07.512Z,8.53
2018-12-15T15:27:36.127Z,9.30
2018-12-15T15:30:07.505Z,9.60
2018-12-15T15:32:36.367Z,8.47
2018-12-15T15:35:06.425Z,9.43
2018-12-15T15:37:35.083Z,10.60
2018-12-15T15:40:05.131Z,10.63
2018-12-15T15:42:33.778Z,11.67
2018-12-15T15:45:02.495Z,10.00
2018-12-15T15:47:31.038Z,10.50
2018-12-15T15:49:59.765Z,11.57
2018-12-15T15:52:28.372Z,11.90
2018-12-15T15:54:57.039Z,12.10
2018-12-15T15:57:25.671Z,11.67
2018-12-15T15:59:54.225Z,11.90
2018-12-15T16:02:22.940Z,11.93
2018-12-15T16:04:51.689Z,11.23
2018-12-15T16:07:20.333Z,9.97
2018-12-15T16:09:49.420Z,9.73
2018-12-15T16:12:18.072Z,9.00
2018-12-15T16:14:46.590Z,8.90
2018-12-15T16:17:15.539Z,18.57
2018-12-15T16:19:44.264Z,20.93
2018-12-15T16:22:13.133Z,22.70
2018-12-15T16:24:41.797Z,18.17
2018-12-15T16:27:10.476Z,12.73
2018-12-15T16:29:38.979Z,9.90
2018-12-15T16:32:07.673Z,12.33
2018-12-15T16:34:36.381Z,14.83
2018-12-15T16:37:05.134Z,16.50
2018-12-15T16:39:33.849Z,17.10
2018-12-15T16:42:02.487Z,22.83
2018-12-15T16:44:31.121Z,18.00
2018-12-15T16:46:59.558Z,18.97
2018-12-15T16:49:28.457Z,20.73
2018-12-15T16:51:57.188Z,38.57
2018-12-15T16:54:25.780Z,48.07
2018-12-15T16:56:54.496Z,42.70
2018-12-15T16:59:23.128Z,32.67
2018-12-15T17:01:51.684Z,22.93
2018-12-15T17:04:20.401Z,22.33
2018-12-15T17:06:48.968Z,25.13
2018-12-15T17:09:17.584Z,27.17
2018-12-15T17:11:46.109Z,27.40
2018-12-15T17:14:14.747Z,25.83
2018-12-15T17:16:43.235Z,26.90
2018-12-15T17:19:11.978Z,31.20
2018-12-15T17:21:40.650Z,24.60
2018-12-15T17:24:09.286Z,20.87
2018-12-15T17:26:37.837Z,25.53
2018-12-15T17:29:06.558Z,27.50
2018-12-15T17:31:35.117Z,27.07
2018-12-15T17:34:03.827Z,28.17
2018-12-15T17:36:32.466Z,24.83
2018-12-15T17:39:01.294Z,24.23
2018-12-15T17:41:31.365Z,30.53
2018-12-15T17:44:00.138Z,29.17
2018-12-15T17:46:28.701Z,32.03
2018-12-15T17:48:57.213Z,32.80
2018-12-15T17:51:25.849Z,41.93
2018-12-15T17:53:54.351Z,34.70
2018-12-15T17:56:23.088Z,35.97
2018-12-15T17:58:51.757Z,40.30
2018-12-15T18:01:20.296Z,34.80
2018-12-15T18:03:49.024Z,42.33
2018-12-15T18:06:17.581Z,33.53
2018-12-15T18:08:46.274Z,38.37
2018-12-15T18:11:14.841Z,35.73
2018-12-15T18:13:43.567Z,63.50
2018-12-15T18:16:12.125Z,50.03
2018-12-15T18:18:40.839Z,58.20
2018-12-15T18:21:09.948Z,49.87
2018-12-15T18:23:38.776Z,43.57
2018-12-15T18:26:07.529Z,40.63
2018-12-15T18:28:36.165Z,40.60
2018-12-15T18:31:05.193Z,31.83
2018-12-15T18:33:37.022Z,33.73
2018-12-15T18:36:04.564Z,22.80
2018-12-15T18:38:33.132Z,26.03
2018-12-15T18:41:01.703Z,25.60
2018-12-15T18:43:30.532Z,24.63
2018-12-15T18:45:59.335Z,21.20
2018-12-15T18:48:27.874Z,19.47
2018-12-15T18:50:56.830Z,16.50
2018-12-15T18:53:25.467Z,17.47
2018-12-15T18:55:54.122Z,17.87
2018-12-15T18:58:22.671Z,27.10
2018-12-15T19:00:51.571Z,19.20
2018-12-15T19:03:20.279Z,21.53
2018-12-15T19:05:48.946Z,18.13
2018-12-15T19:08:17.542Z,19.53
2018-12-15T19:10:46.311Z,21.23
2018-12-15T19:13:14.873Z,24.70
2018-12-15T19:15:43.578Z,22.67
2018-12-15T19:18:12.412Z,26.37
2018-12-15T19:20:41.050Z,25.10
2018-12-15T19:23:09.878Z,21.13
2018-12-15T19:25:38.434Z,32.97
2018-12-15T19:28:07.126Z,30.93
2018-12-15T19:30:35.783Z,29.20
2018-12-15T19:33:04.614Z,26.00
2018-12-15T19:35:33.250Z,31.53
2018-12-15T19:38:02.084Z,31.63
2018-12-15T19:40:30.721Z,27.37
2018-12-15T19:42:59.549Z,24.90
2018-12-15T19:45:28.148Z,26.20
2018-12-15T19:47:56.821Z,24.90
2018-12-15T19:50:25.653Z,23.23
2018-12-15T19:52:54.294Z,22.00
2018-12-15T19:55:22.924Z,18.60
2018-12-15T19:57:51.628Z,27.37
2018-12-15T20:00:20.299Z,31.37
2018-12-15T20:02:48.942Z,29.73
2018-12-15T20:05:18.224Z,29.03
2018-12-15T20:07:47.096Z,34.97
2018-12-15T20:10:16.019Z,42.03
2018-12-15T20:12:46.198Z,25.87
2018-12-15T20:15:15.530Z,25.43
2018-12-15T20:17:44.181Z,25.77
2018-12-15T20:20:12.816Z,33.13
2018-12-15T20:22:41.647Z,26.77
2018-12-15T20:25:10.400Z,23.00
2018-12-15T20:27:39.114Z,17.13
2018-12-15T20:30:08.110Z,19.50
2018-12-15T20:32:36.649Z,17.07
2018-12-15T20:35:06.003Z,14.83
2018-12-15T20:37:34.564Z,13.80
2018-12-15T20:40:03.277Z,14.10
2018-12-15T20:42:32.070Z,13.33
2018-12-15T20:45:00.741Z,14.97
2018-12-15T20:47:29.377Z,16.27
2018-12-15T20:49:58.514Z,20.07
2018-12-15T20:52:26.965Z,19.27
2018-12-15T20:54:55.784Z,27.67
2018-12-15T20:57:24.422Z,37.80
2018-12-15T20:59:53.147Z,29.50
2018-12-15T21:02:21.778Z,20.50
2018-12-15T21:04:50.611Z,15.70
2018-12-15T21:07:19.245Z,14.70
2018-12-15T21:09:47.881Z,14.53
2018-12-15T21:12:16.387Z,23.23
2018-12-15T21:14:45.189Z,22.53
2018-12-15T21:17:13.983Z,23.67
2018-12-15T21:19:47.808Z,22.50
2018-12-15T21:22:13.522Z,17.00
2018-12-15T21:24:41.963Z,17.40
2018-12-15T21:27:10.627Z,14.93
2018-12-15T21:29:41.866Z,14.87
2018-12-15T21:32:13.867Z,14.20
2018-12-15T21:34:42.688Z,12.87
2018-12-15T21:37:11.624Z,12.87
2018-12-15T21:39:40.351Z,13.93
2018-12-15T21:42:08.931Z,12.70
2018-12-15T21:44:37.556Z,14.37
2018-12-15T21:47:06.218Z,14.47
2018-12-15T21:49:35.286Z,14.37
2018-12-15T21:52:04.029Z,14.37
2018-12-15T21:54:32.823Z,14.27
2018-12-15T21:57:01.585Z,15.57
2018-12-15T21:59:30.154Z,15.40
2018-12-15T22:01:58.917Z,15.47
2018-12-15T22:04:27.664Z,18.23
2018-12-15T22:06:56.323Z,18.57
2018-12-15T22:09:24.959Z,18.13
2018-12-15T22:11:53.668Z,20.17
2018-12-15T22:14:22.434Z,18.37
2018-12-15T22:16:50.976Z,19.10
2018-12-15T22:19:20.162Z,14.67
2018-12-15T22:21:48.791Z,11.73
2018-12-15T22:24:17.277Z,16.67
2018-12-15T22:26:45.996Z,14.97
2018-12-15T22:29:14.630Z,13.13
2018-12-15T22:31:43.266Z,17.90
2018-12-15T22:34:11.901Z,21.73
2018-12-15T22:36:40.733Z,27.90
2018-12-15T22:39:09.563Z,15.97
2018-12-15T22:41:38.127Z,14.50
2018-12-15T22:44:06.835Z,13.03
2018-12-15T22:46:35.338Z,13.63
2018-12-15T22:49:03.825Z,13.47
2018-12-15T22:51:32.517Z,14.30
2018-12-15T22:54:01.179Z,14.03
2018-12-15T22:56:29.777Z,16.37
2018-12-15T22:58:58.451Z,15.93
2018-12-15T23:01:27.186Z,15.33
2018-12-15T23:03:55.917Z,15.43
2018-12-15T23:06:24.553Z,19.83
2018-12-15T23:08:53.115Z,24.37
2018-12-15T23:11:21.824Z,22.20
2018-12-15T23:13:51.049Z,25.63
2018-12-15T23:16:19.839Z,37.23
2018-12-15T23:18:48.515Z,39.90
2018-12-15T23:21:17.018Z,33.00
2018-12-15T23:23:46.050Z,29.37
2018-12-15T23:26:14.810Z,30.67
2018-12-15T23:28:43.350Z,32.30
2018-12-15T23:31:11.887Z,30.37
2018-12-15T23:33:40.435Z,31.30
2018-12-15T23:36:09.161Z,42.13
2018-12-15T23:38:37.722Z,41.87
2018-12-15T23:41:06.501Z,41.77
2018-12-15T23:43:35.071Z,40.60
2018-12-15T23:46:03.699Z,38.73
2018-12-15T23:48:32.335Z,39.00
2018-12-15T23:51:00.881Z,34.73
2018-12-15T23:53:29.802Z,34.47
2018-12-15T23:55:58.365Z,38.43
2018-12-15T23:58:27.073Z,39.90
